createdAt,value
2019-04-27T00:00:18.311Z,4.08
2019-04-27T00:03:06.114Z,4.10
2019-04-27T00:05:39.638Z,3.83
2019-04-27T00:08:18.571Z,4.42
2019-04-27T00:10:53.268Z,4.25
2019-04-27T00:13:26.289Z,4.25
2019-04-27T00:16:11.115Z,3.55
2019-04-27T00:18:49.719Z,3.98
2019-04-27T00:21:24.666Z,3.42
2019-04-27T00:23:57.284Z,3.35
2019-04-27T00:26:29.863Z,3.87
2019-04-27T00:29:03.691Z,3.02
2019-04-27T00:31:37.819Z,3.30
2019-04-27T00:34:13.344Z,2.65
2019-04-27T00:36:47.297Z,3.12
2019-04-27T00:41:55.786Z,2.92
2019-04-27T00:44:31.466Z,3.60
2019-04-27T00:47:05.459Z,3.40
2019-04-27T00:49:38.545Z,3.58
2019-04-27T00:52:13.891Z,2.75
2019-04-27T00:54:48.151Z,2.75
2019-04-27T00:57:26.331Z,2.80
2019-04-27T00:59:58.397Z,3.10
2019-04-27T01:05:23.748Z,3.22
2019-04-27T01:07:56.297Z,3.05
2019-04-27T01:10:29.309Z,3.15
2019-04-27T01:13:03.244Z,3.45
2019-04-27T01:15:36.569Z,3.50
2019-04-27T01:18:13.237Z,3.98
2019-04-27T01:20:43.450Z,3.85
2019-04-27T01:28:35.437Z,3.65
2019-04-27T01:31:11.134Z,3.40
2019-04-27T01:33:46.362Z,3.83
2019-04-27T01:36:19.085Z,3.60
2019-04-27T01:38:51.478Z,3.65
2019-04-27T01:41:24.907Z,4.00
2019-04-27T01:43:59.006Z,3.77
2019-04-27T01:46:31.468Z,3.55
2019-04-27T01:51:36.529Z,3.20
2019-04-27T01:54:13.719Z,3.58
2019-04-27T01:56:49.398Z,3.65
2019-04-27T01:59:21.845Z,3.70
2019-04-27T02:02:03.347Z,3.62
2019-04-27T02:04:55.041Z,3.50
2019-04-27T02:07:28.034Z,3.17
2019-04-27T02:10:59.450Z,3.25
2019-04-27T02:13:33.925Z,3.02
2019-04-27T02:16:06.346Z,3.52
2019-04-27T02:18:40.169Z,3.95
2019-04-27T02:21:12.674Z,3.30
2019-04-27T02:23:49.705Z,3.50
2019-04-27T02:26:22.423Z,3.85
2019-04-27T02:31:49.904Z,3.42
2019-04-27T02:34:23.310Z,3.58
2019-04-27T02:36:55.679Z,3.42
2019-04-27T02:39:29.828Z,3.37
2019-04-27T02:42:03.970Z,3.62
2019-04-27T02:44:42.322Z,3.62
2019-04-27T02:47:14.751Z,3.60
2019-04-27T02:49:47.291Z,3.98
2019-04-27T02:52:34.643Z,4.00
2019-04-27T02:55:09.618Z,4.08
2019-04-27T02:57:42.288Z,4.17
2019-04-27T03:00:15.330Z,3.90
2019-04-27T03:02:51.072Z,4.62
2019-04-27T03:05:29.333Z,4.00
2019-04-27T03:08:02.419Z,3.75
2019-04-27T03:10:34.699Z,4.67
2019-04-27T03:13:20.080Z,4.60
2019-04-27T03:16:13.023Z,4.33
2019-04-27T03:19:13.395Z,3.85
2019-04-27T03:21:53.783Z,4.53
2019-04-27T03:24:44.361Z,4.00
2019-04-27T03:27:20.131Z,4.00
2019-04-27T03:29:53.294Z,3.87
2019-04-27T03:32:30.794Z,4.12
2019-04-27T03:35:03.621Z,4.42
2019-04-27T03:37:36.314Z,4.55
2019-04-27T03:40:10.875Z,4.03
2019-04-27T03:42:45.268Z,4.25
2019-04-27T03:45:19.984Z,4.40
2019-04-27T03:50:30.346Z,4.55
2019-04-27T03:53:10.294Z,4.85
2019-04-27T03:56:01.296Z,4.08
2019-04-27T03:58:39.657Z,3.47
2019-04-27T04:01:13.101Z,4.03
2019-04-27T04:03:46.393Z,3.87
2019-04-27T04:08:55.076Z,4.67
2019-04-27T04:11:30.295Z,4.92
2019-04-27T04:14:06.402Z,5.35
2019-04-27T04:16:41.355Z,4.67
2019-04-27T04:19:14.207Z,4.70
2019-04-27T04:21:49.647Z,4.75
2019-04-27T04:24:21.587Z,4.78
2019-04-27T04:26:54.037Z,5.33
2019-04-27T04:29:26.792Z,4.40
2019-04-27T04:32:00.506Z,4.08
2019-04-27T04:34:33.295Z,4.75
2019-04-27T04:37:05.859Z,5.92
2019-04-27T04:42:14.284Z,4.65
2019-04-27T04:44:50.226Z,4.75
2019-04-27T04:47:24.872Z,4.90
2019-04-27T04:50:10.283Z,4.70
2019-04-27T04:52:31.372Z,4.80
2019-04-27T04:57:36.010Z,3.65
2019-04-27T05:00:10.049Z,4.75
2019-04-27T05:02:43.621Z,4.10
2019-04-27T05:05:19.210Z,4.42
2019-04-27T05:07:51.837Z,4.05
2019-04-27T05:10:24.330Z,3.08
2019-04-27T05:12:56.638Z,3.02
2019-04-27T05:15:29.994Z,3.00
2019-04-27T05:18:02.351Z,3.83
2019-04-27T05:20:51.990Z,3.05
2019-04-27T05:23:24.317Z,2.70
2019-04-27T05:25:56.675Z,2.70
2019-04-27T05:28:29.834Z,2.67
2019-04-27T05:31:02.421Z,2.60
2019-04-27T05:33:35.781Z,2.40
2019-04-27T05:36:09.202Z,2.87
2019-04-27T05:40:14.299Z,2.37
2019-04-27T05:42:48.885Z,2.42
2019-04-27T05:46:29.813Z,2.72
2019-04-27T05:49:06.205Z,2.40
2019-04-27T05:54:12.328Z,2.60
2019-04-27T05:56:44.578Z,2.17
2019-04-27T06:01:05.269Z,2.42
2019-04-27T06:03:39.405Z,1.82
2019-04-27T06:06:11.562Z,1.75
2019-04-27T06:08:49.344Z,1.80
2019-04-27T06:13:53.780Z,2.20
2019-04-27T06:16:26.289Z,1.85
2019-04-27T06:19:00.599Z,1.70
2019-04-27T06:21:35.410Z,1.70
2019-04-27T06:24:08.745Z,1.37
2019-04-27T06:26:49.830Z,1.57
2019-04-27T06:29:24.038Z,1.72
2019-04-27T06:32:00.966Z,1.62
2019-04-27T06:38:44.625Z,1.40
2019-04-27T06:41:18.974Z,1.57
2019-04-27T06:43:53.068Z,1.10
2019-04-27T06:46:25.349Z,1.20
2019-04-27T06:54:03.465Z,1.15
2019-04-27T06:57:58.983Z,1.30
2019-04-27T07:00:31.413Z,1.10
2019-04-27T07:05:35.753Z,1.12
2019-04-27T07:08:14.299Z,0.98
2019-04-27T07:10:52.765Z,0.90
2019-04-27T07:13:27.041Z,0.77
2019-04-27T07:16:00.339Z,0.88
2019-04-27T07:27:19.129Z,0.80
2019-04-27T07:30:03.054Z,0.90
2019-04-27T07:32:39.075Z,0.90
2019-04-27T07:35:11.775Z,0.90
2019-04-27T07:38:32.364Z,0.70
2019-04-27T07:43:49.739Z,0.90
2019-04-27T07:46:22.327Z,1.10
2019-04-27T07:48:56.607Z,0.90
2019-04-27T07:51:34.046Z,0.85
2019-04-27T07:54:04.671Z,0.95
2019-04-27T07:56:38.965Z,0.90
2019-04-27T07:59:11.795Z,0.82
2019-04-27T08:01:44.497Z,0.80
2019-04-27T08:07:45.505Z,1.00
2019-04-27T08:16:09.300Z,1.00
2019-04-27T08:18:43.606Z,1.10
2019-04-27T08:21:28.897Z,0.88
2019-04-27T08:24:05.395Z,1.00
2019-04-27T08:33:29.636Z,0.90
2019-04-27T08:36:11.897Z,0.75
2019-04-27T08:38:45.904Z,1.10
2019-04-27T08:41:21.038Z,0.90
2019-04-27T08:43:54.356Z,0.93
2019-04-27T08:49:02.009Z,0.95
2019-04-27T08:51:34.818Z,0.80
2019-04-27T08:54:09.086Z,0.62
2019-04-27T08:56:42.053Z,0.75
2019-04-27T08:59:16.448Z,1.02
2019-04-27T09:01:51.021Z,0.80
2019-04-27T09:04:28.804Z,0.80
2019-04-27T09:20:03.888Z,0.75
2019-04-27T09:22:36.705Z,0.68
2019-04-27T09:25:10.067Z,0.80
2019-04-27T09:27:42.901Z,0.60
2019-04-27T09:30:18.957Z,0.50
2019-04-27T09:32:53.521Z,0.70
2019-04-27T09:35:26.794Z,0.65
2019-04-27T09:38:01.438Z,0.80
2019-04-27T09:40:36.055Z,0.70
2019-04-27T09:43:09.328Z,0.80
2019-04-27T09:45:49.354Z,0.90
2019-04-27T09:48:29.785Z,1.00
2019-04-27T09:51:02.567Z,1.20
2019-04-27T09:53:36.451Z,0.93
2019-04-27T09:56:09.316Z,1.00
2019-04-27T09:58:43.823Z,1.05
2019-04-27T10:01:18.159Z,0.90
2019-04-27T10:03:56.918Z,1.00
2019-04-27T10:18:42.499Z,0.50
2019-04-27T10:21:17.551Z,0.40
2019-04-27T10:23:56.642Z,0.50
2019-04-27T10:26:30.577Z,0.40
2019-04-27T10:42:56.792Z,0.70
2019-04-27T10:45:31.467Z,0.60
2019-04-27T10:48:09.857Z,0.80
2019-04-27T10:53:22.328Z,0.72
2019-04-27T10:55:56.406Z,0.42
2019-04-27T10:58:29.346Z,0.60
2019-04-27T11:06:53.296Z,0.72
2019-04-27T11:09:26.390Z,0.56
2019-04-27T11:11:59.570Z,0.43
2019-04-27T11:14:35.311Z,0.50
2019-04-27T11:17:10.320Z,0.40
2019-04-27T11:19:46.024Z,0.40
2019-04-27T11:22:21.820Z,0.42
2019-04-27T11:24:56.396Z,0.50
2019-04-27T11:27:29.285Z,0.40
2019-04-27T11:30:20.064Z,0.70
2019-04-27T11:32:59.033Z,0.60
2019-04-27T11:36:21.400Z,0.62
2019-04-27T11:41:40.545Z,0.97
2019-04-27T11:54:31.558Z,1.27
2019-04-27T11:57:15.308Z,0.88
2019-04-27T11:59:54.357Z,1.30
2019-04-27T12:02:31.651Z,1.10
2019-04-27T12:05:36.934Z,1.12
2019-04-27T12:08:13.493Z,1.17
2019-04-27T12:11:26.387Z,2.37
2019-04-27T12:13:41.290Z,0.90
2019-04-27T12:16:31.669Z,1.10
2019-04-27T12:19:11.754Z,0.95
2019-04-27T12:21:56.396Z,1.30
2019-04-27T12:25:01.114Z,2.00
2019-04-27T12:28:02.141Z,1.32
2019-04-27T12:30:40.167Z,1.00
2019-04-27T12:33:22.044Z,1.12
2019-04-27T12:36:08.450Z,1.20
2019-04-27T12:38:42.486Z,1.30
2019-04-27T12:41:24.354Z,0.82
2019-04-27T12:44:07.145Z,1.00
2019-04-27T12:46:43.839Z,0.90
2019-04-27T12:49:19.312Z,0.80
2019-04-27T12:51:58.961Z,0.90
2019-04-27T12:55:06.591Z,1.20
2019-04-27T12:58:00.567Z,0.93
2019-04-27T13:00:40.815Z,0.70
2019-04-27T13:03:20.648Z,0.75
2019-04-27T13:05:59.324Z,0.95
2019-04-27T13:08:33.457Z,0.80
2019-04-27T13:11:09.503Z,1.00
2019-04-27T13:13:57.495Z,0.95
2019-04-27T13:16:30.412Z,0.82
2019-04-27T13:19:08.328Z,0.62
2019-04-27T13:21:47.763Z,0.55
2019-04-27T13:24:31.829Z,0.50
2019-04-27T13:27:07.438Z,0.70
2019-04-27T13:29:46.551Z,0.60
2019-04-27T13:32:19.294Z,0.60
2019-04-27T13:34:52.838Z,0.65
2019-04-27T13:37:42.797Z,0.70
2019-04-27T13:40:20.375Z,0.37
2019-04-27T13:43:03.689Z,0.53
2019-04-27T13:45:49.811Z,0.80
2019-04-27T13:48:27.919Z,0.80
2019-04-27T13:51:02.295Z,0.95
2019-04-27T13:53:36.819Z,1.00
2019-04-27T13:56:18.297Z,1.00
2019-04-27T13:59:01.070Z,0.70
2019-04-27T14:02:02.903Z,0.72
2019-04-27T14:04:36.636Z,1.00
2019-04-27T14:09:56.684Z,0.78
2019-04-27T14:12:38.564Z,0.98
2019-04-27T14:15:58.065Z,0.90
2019-04-27T14:18:49.185Z,0.70
2019-04-27T14:21:24.348Z,0.88
2019-04-27T14:24:12.987Z,0.80
2019-04-27T14:26:57.340Z,0.78
2019-04-27T14:29:33.659Z,0.80
2019-04-27T15:01:12.675Z,0.57
2019-04-27T15:04:27.095Z,0.55
2019-04-27T15:13:43.102Z,0.98
2019-04-27T15:17:06.773Z,0.90
2019-04-27T15:20:06.837Z,1.07
2019-04-27T15:23:05.351Z,1.00
2019-04-27T15:25:52.116Z,0.80
2019-04-27T15:28:44.818Z,1.00
2019-04-27T15:34:58.809Z,1.10
2019-04-27T15:41:35.562Z,1.30
2019-04-27T15:44:36.407Z,1.07
2019-04-27T15:51:54.654Z,1.60
2019-04-27T15:57:56.440Z,1.00
2019-04-27T16:00:29.236Z,1.03
2019-04-27T16:03:02.980Z,1.22
2019-04-27T16:05:36.737Z,1.20
2019-04-27T16:08:15.215Z,0.90
2019-04-27T16:10:43.622Z,0.90
2019-04-27T16:13:18.042Z,0.70
2019-04-27T16:15:54.075Z,0.80
2019-04-27T16:18:31.007Z,0.62
2019-04-27T16:21:02.824Z,0.70
2019-04-27T16:23:42.739Z,0.70
2019-04-27T16:26:14.997Z,0.62
2019-04-27T16:28:53.256Z,0.80
2019-04-27T16:34:02.856Z,0.70
2019-04-27T16:36:37.811Z,0.80
2019-04-27T16:39:14.522Z,0.60
2019-04-27T16:44:22.807Z,1.20
2019-04-27T16:47:17.583Z,1.05
2019-04-27T16:59:26.762Z,1.32
2019-04-27T17:01:56.197Z,0.90
2019-04-27T17:04:31.556Z,1.20
2019-04-27T17:08:49.460Z,0.98
2019-04-27T17:11:21.749Z,0.90
2019-04-27T17:13:58.974Z,1.15
2019-04-27T17:16:39.464Z,1.10
2019-04-27T17:19:14.869Z,6.05
2019-04-27T17:21:48.502Z,22.42
2019-04-27T17:24:41.989Z,4.53
2019-04-27T17:27:11.646Z,1.60
2019-04-27T17:29:49.976Z,1.17
2019-04-27T17:32:30.228Z,1.50
2019-04-27T17:35:04.937Z,1.07
2019-04-27T17:37:35.814Z,1.20
2019-04-27T17:40:09.528Z,1.17
2019-04-27T17:42:42.443Z,1.12
2019-04-27T17:45:15.419Z,1.40
2019-04-27T17:47:48.341Z,2.05
2019-04-27T17:50:25.125Z,2.30
2019-04-27T17:52:59.113Z,2.35
2019-04-27T17:55:31.783Z,1.87
2019-04-27T17:58:05.154Z,1.42
2019-04-27T18:00:43.128Z,1.22
2019-04-27T18:03:17.536Z,1.65
2019-04-27T18:05:49.324Z,1.60
2019-04-27T18:08:25.320Z,2.12
2019-04-27T18:11:03.014Z,1.60
2019-04-27T18:13:32.506Z,2.33
2019-04-27T18:16:05.695Z,1.90
2019-04-27T18:18:43.369Z,1.65
2019-04-27T18:21:19.469Z,1.50
2019-04-27T18:26:49.239Z,1.52
2019-04-27T18:31:54.425Z,1.72
2019-04-27T18:34:25.678Z,1.72
2019-04-27T18:36:58.370Z,1.90
2019-04-27T18:39:31.335Z,1.43
2019-04-27T18:42:04.648Z,2.00
2019-04-27T18:44:38.150Z,1.73
2019-04-27T18:47:13.762Z,1.65
2019-04-27T18:49:55.347Z,1.66
2019-04-27T18:52:49.608Z,3.40
2019-04-27T18:55:21.019Z,2.72
2019-04-27T18:57:55.846Z,2.25
2019-04-27T19:00:31.248Z,1.85
2019-04-27T19:03:04.311Z,2.40
2019-04-27T19:05:40.478Z,1.90
2019-04-27T19:08:13.091Z,1.47
2019-04-27T19:10:45.802Z,1.40
2019-04-27T19:13:19.187Z,1.27
2019-04-27T19:15:52.064Z,1.60
2019-04-27T19:18:26.473Z,2.30
2019-04-27T19:21:04.897Z,1.20
2019-04-27T19:23:38.194Z,1.40
2019-04-27T19:26:16.521Z,1.22
2019-04-27T19:29:08.452Z,1.85
2019-04-27T19:31:43.580Z,1.75
2019-04-27T19:34:17.704Z,1.92
2019-04-27T19:36:50.854Z,1.80
2019-04-27T19:39:23.508Z,1.75
2019-04-27T19:42:00.801Z,1.50
2019-04-27T19:44:31.594Z,0.98
2019-04-27T19:47:06.055Z,1.50
2019-04-27T19:49:38.832Z,1.30
2019-04-27T19:52:11.468Z,1.30
2019-04-27T19:54:44.289Z,1.32
2019-04-27T19:59:52.335Z,1.92
2019-04-27T20:02:28.796Z,1.22
2019-04-27T20:05:03.401Z,1.60
2019-04-27T20:07:38.065Z,1.60
2019-04-27T20:10:11.018Z,1.50
2019-04-27T20:12:43.572Z,2.00
2019-04-27T20:15:16.306Z,1.60
2019-04-27T20:17:50.753Z,3.67
2019-04-27T20:20:23.389Z,1.80
2019-04-27T20:22:56.307Z,1.80
2019-04-27T20:25:28.774Z,1.82
2019-04-27T20:28:01.385Z,1.47
2019-04-27T20:30:35.399Z,1.53
2019-04-27T20:33:10.905Z,1.67
2019-04-27T20:35:43.912Z,1.80
2019-04-27T20:38:16.723Z,3.70
2019-04-27T20:40:51.032Z,4.05
2019-04-27T20:43:24.797Z,2.35
2019-04-27T20:45:57.445Z,1.98
2019-04-27T20:48:31.305Z,1.60
2019-04-27T20:51:04.035Z,1.80
2019-04-27T20:53:38.412Z,1.87
2019-04-27T20:56:11.294Z,2.10
2019-04-27T20:58:44.350Z,2.00
2019-04-27T21:01:18.674Z,1.40
2019-04-27T21:03:52.885Z,2.92
2019-04-27T21:06:41.021Z,2.28
2019-04-27T21:09:17.494Z,1.47
2019-04-27T21:11:50.640Z,1.70
2019-04-27T21:14:23.316Z,2.00
2019-04-27T21:16:57.135Z,1.62
2019-04-27T21:19:31.220Z,1.32
2019-04-27T21:22:07.371Z,1.20
2019-04-27T21:24:41.347Z,1.60
2019-04-27T21:29:45.800Z,1.45
2019-04-27T21:32:20.477Z,1.57
2019-04-27T21:34:54.326Z,1.20
2019-04-27T21:37:27.798Z,1.32
2019-04-27T21:40:21.399Z,1.55
2019-04-27T21:42:54.352Z,2.17
2019-04-27T21:45:31.848Z,1.60
2019-04-27T21:48:04.851Z,1.20
2019-04-27T21:50:37.423Z,1.20
2019-04-27T21:53:16.500Z,1.30
2019-04-27T21:55:53.128Z,1.40
2019-04-27T21:58:28.831Z,1.50
2019-04-27T22:01:13.195Z,1.10
2019-04-27T22:03:48.501Z,1.45
2019-04-27T22:06:21.486Z,1.40
2019-04-27T22:08:54.313Z,1.10
2019-04-27T22:14:01.354Z,2.10
2019-04-27T22:16:34.309Z,1.20
2019-04-27T22:19:07.558Z,1.70
2019-04-27T22:22:51.541Z,1.50
2019-04-27T22:25:39.482Z,1.87
2019-04-27T22:28:12.309Z,1.80
2019-04-27T22:30:44.799Z,1.90
2019-04-27T22:33:17.349Z,2.20
2019-04-27T22:35:51.653Z,1.57
2019-04-27T22:38:24.379Z,2.20
2019-04-27T22:41:03.505Z,2.58
2019-04-27T22:43:44.554Z,2.35
2019-04-27T22:46:18.503Z,2.00
2019-04-27T22:48:51.790Z,2.12
2019-04-27T22:53:54.437Z,2.30
2019-04-27T22:56:29.045Z,1.62
2019-04-27T22:59:07.048Z,2.20
2019-04-27T23:01:45.308Z,1.85
2019-04-27T23:06:55.295Z,2.15
2019-04-27T23:09:28.827Z,1.76
2019-04-27T23:12:01.871Z,1.85
2019-04-27T23:14:35.335Z,1.43
2019-04-27T23:17:25.323Z,1.65
2019-04-27T23:19:58.839Z,1.72
2019-04-27T23:22:31.607Z,1.70
2019-04-27T23:25:05.026Z,1.60
2019-04-27T23:27:37.552Z,1.93
2019-04-27T23:30:11.707Z,1.80
2019-04-27T23:32:47.880Z,1.55
2019-04-27T23:35:20.425Z,1.98
2019-04-27T23:40:25.594Z,1.98
2019-04-27T23:42:59.410Z,2.12
2019-04-27T23:48:04.304Z,2.08
2019-04-27T23:53:17.390Z,5.42
2019-04-27T23:55:49.873Z,4.30
2019-04-27T23:58:22.518Z,4.17
